Time;durP1;ratioP1;P1;durP2;ratioP2;P2;SDS_P1;SDS_P2;PMS_P1;PMS_P2;Temp;Humidity;BMP_temperature;BMP_pressure;BME280_temperature;BME280_humidity;BME280_pressure;Samples;Min_cycle;Max_cycle;Signal;HPM_P1;HPM_P2
2022/06/25 00:01:51;;;;;;;10.20;4.25;;;;;;;19.74;100.00;97426.94;5093783;28;20020;-74
2022/06/25 00:07:01;;;;;;;11.88;5.25;;;;;;;19.48;100.00;97422.13;5093625;28;20031;-75
2022/06/25 00:09:26;;;;;;;6.68;4.57;;;;;;;19.23;100.00;97423.56;5093674;28;20064;-74
2022/06/25 00:14:36;;;;;;;9.18;5.00;;;;;;;19.20;100.00;97419.50;5093572;28;20564;-75
2022/06/25 00:17:02;;;;;;;11.73;5.53;;;;;;;19.30;100.00;97431.19;5093784;28;20110;-74
2022/06/25 00:19:27;;;;;;;8.48;5.13;;;;;;;19.22;100.00;97427.47;5093464;28;20035;-76
2022/06/25 00:21:53;;;;;;;9.30;5.75;;;;;;;19.32;100.00;97424.13;5093592;28;20028;-75
2022/06/25 00:24:18;;;;;;;16.52;6.32;;;;;;;19.27;100.00;97430.75;5093231;28;20103;-74
2022/06/25 00:26:44;;;;;;;13.48;6.30;;;;;;;19.27;100.00;97429.94;5093163;28;20028;-75
2022/06/25 00:29:10;;;;;;;10.23;5.28;;;;;;;19.33;100.00;97431.25;5093017;28;20028;-73
2022/06/25 00:31:37;;;;;;;9.93;5.25;;;;;;;19.25;100.00;97427.56;5093111;28;20458;-75
2022/06/25 00:34:03;;;;;;;8.75;5.00;;;;;;;19.19;100.00;97434.56;5093058;28;20024;-75
2022/06/25 00:36:28;;;;;;;10.68;5.35;;;;;;;19.22;100.00;97425.50;5093088;28;20491;-75
2022/06/25 00:38:54;;;;;;;9.85;5.32;;;;;;;19.31;100.00;97413.38;5093291;28;20036;-75
2022/06/25 00:41:20;;;;;;;13.43;5.35;;;;;;;19.25;100.00;97410.91;5091593;28;20032;-74
2022/06/25 00:43:45;;;;;;;12.90;6.07;;;;;;;19.18;100.00;97409.97;5092923;28;20151;-74
2022/06/25 00:46:10;;;;;;;15.27;5.32;;;;;;;19.10;100.00;97402.66;5093296;28;20434;-75
2022/06/25 00:48:36;;;;;;;10.52;5.30;;;;;;;19.04;100.00;97407.72;5092970;28;20107;-75
2022/06/25 00:51:09;;;;;;;11.05;4.45;;;;;;;18.98;100.00;97400.81;5092825;28;20035;-75
2022/06/25 00:53:35;;;;;;;9.55;4.88;;;;;;;19.03;100.00;97403.31;5092769;28;20024;-76
2022/06/25 00:56:05;;;;;;;8.60;4.18;;;;;;;19.00;100.00;97404.03;5092306;28;20028;-75
2022/06/25 00:58:32;;;;;;;8.27;4.55;;;;;;;18.89;100.00;97405.78;5091434;28;20035;-76
2022/06/25 01:01:03;;;;;;;6.20;4.63;;;;;;;18.80;100.00;97416.25;5094095;28;20043;-76
2022/06/25 01:03:28;;;;;;;8.68;5.28;;;;;;;18.76;100.00;97407.09;5093929;28;20025;-74
2022/06/25 01:05:54;;;;;;;9.50;5.35;;;;;;;18.65;100.00;97403.25;5092655;28;20039;-76
2022/06/25 01:08:20;;;;;;;8.05;4.50;;;;;;;18.69;100.00;97418.00;5092425;28;20024;-75
2022/06/25 01:10:45;;;;;;;12.60;5.78;;;;;;;18.61;100.00;97411.47;5092487;28;20029;-75
2022/06/25 01:13:11;;;;;;;10.05;4.50;;;;;;;18.55;100.00;97407.38;5092265;28;20050;-74
2022/06/25 01:15:38;;;;;;;11.30;4.60;;;;;;;18.56;100.00;97416.50;5091450;28;20117;-76
2022/06/25 01:18:03;;;;;;;8.68;4.25;;;;;;;18.66;100.00;97413.19;5074152;28;20422;-74
2022/06/25 01:20:29;;;;;;;8.52;4.82;;;;;;;18.68;100.00;97419.16;5092178;28;20044;-73
2022/06/25 01:22:54;;;;;;;8.52;4.85;;;;;;;18.73;100.00;97416.91;5092064;28;20366;-75
2022/06/25 01:25:20;;;;;;;10.73;4.88;;;;;;;18.80;100.00;97416.25;5076323;28;20028;-75
2022/06/25 01:27:46;;;;;;;10.05;5.57;;;;;;;18.79;100.00;97411.91;5070844;28;20043;-74
2022/06/25 01:30:13;;;;;;;11.60;5.20;;;;;;;18.87;100.00;97407.31;5071682;28;20020;-74
2022/06/25 01:32:38;;;;;;;10.10;4.57;;;;;;;18.84;100.00;97419.94;5071673;28;20025;-75
2022/06/25 01:35:04;;;;;;;8.07;5.15;;;;;;;18.82;100.00;97407.59;5071821;28;20077;-74
2022/06/25 01:37:30;;;;;;;9.50;4.85;;;;;;;18.71;100.00;97421.22;5071468;28;20074;-75
2022/06/25 01:39:57;;;;;;;8.48;5.15;;;;;;;18.54;100.00;97414.09;5071476;28;20515;-75
2022/06/25 01:45:12;;;;;;;13.13;5.13;;;;;;;18.39;100.00;97414.06;5071625;28;20078;-75
2022/06/25 01:47:38;;;;;;;10.75;5.40;;;;;;;18.35;100.00;97414.03;5072032;28;20032;-75
2022/06/25 01:50:06;;;;;;;9.38;5.47;;;;;;;18.29;100.00;97412.69;5071360;28;20025;-75
2022/06/25 01:52:32;;;;;;;7.32;4.93;;;;;;;18.24;100.00;97409.38;5071201;28;20044;-74
2022/06/25 01:54:57;;;;;;;10.98;5.47;;;;;;;18.20;100.00;97409.28;5071322;28;20499;-75
2022/06/25 01:57:22;;;;;;;11.13;5.22;;;;;;;18.15;100.00;97412.31;5071227;28;20036;-75
2022/06/25 01:59:48;;;;;;;7.88;4.75;;;;;;;18.22;100.00;97420.00;5071019;28;20496;-76
2022/06/25 02:02:14;;;;;;;12.40;5.22;;;;;;;18.29;100.00;97417.41;5071141;28;20024;-75
2022/06/25 02:04:39;;;;;;;9.80;5.55;;;;;;;18.40;100.00;97424.81;5071439;28;20024;-76
2022/06/25 02:07:05;;;;;;;9.25;5.70;;;;;;;18.38;100.00;97431.88;5072117;28;20492;-75
2022/06/25 02:09:30;;;;;;;10.98;6.35;;;;;;;18.27;100.00;97439.09;5072337;28;20074;-75
2022/06/25 02:11:56;;;;;;;13.82;6.65;;;;;;;18.10;100.00;97432.78;5071028;28;20140;-74
2022/06/25 02:14:21;;;;;;;10.07;5.30;;;;;;;18.12;100.00;97436.00;5071258;28;20085;-75
2022/06/25 02:16:46;;;;;;;8.98;5.18;;;;;;;18.23;100.00;97444.56;5071278;28;20025;-74
2022/06/25 02:19:13;;;;;;;11.02;5.90;;;;;;;18.28;100.00;97426.88;5070662;28;20492;-75
2022/06/25 02:21:38;;;;;;;12.32;6.32;;;;;;;18.09;100.00;97441.44;5070773;28;20082;-76
2022/06/25 02:24:04;;;;;;;13.93;6.82;;;;;;;17.87;100.00;97451.16;5070993;28;20484;-75
2022/06/25 02:26:29;;;;;;;12.07;6.55;;;;;;;17.80;100.00;97450.97;5071001;28;20557;-75
2022/06/25 02:28:54;;;;;;;7.38;5.55;;;;;;;17.89;100.00;97456.31;5070761;28;20020;-74
2022/06/25 02:31:20;;;;;;;15.45;5.85;;;;;;;17.79;100.00;97460.44;5069393;28;20016;-74
2022/06/25 02:33:45;;;;;;;14.18;6.70;;;;;;;17.95;100.00;97463.22;5070607;28;20040;-75
2022/06/25 02:36:10;;;;;;;11.63;5.80;;;;;;;17.98;100.00;97465.28;5070616;28;20423;-75
2022/06/25 02:38:36;;;;;;;11.40;5.90;;;;;;;17.93;100.00;97466.34;5069099;28;20023;-75
2022/06/25 02:41:01;;;;;;;12.40;6.22;;;;;;;17.88;100.00;97469.38;5070164;28;20029;-74
2022/06/25 02:43:26;;;;;;;10.65;6.40;;;;;;;17.85;100.00;97474.81;5070684;28;20024;-74
2022/06/25 02:45:52;;;;;;;13.27;6.63;;;;;;;17.89;100.00;97476.50;5069552;28;20120;-74
2022/06/25 02:48:17;;;;;;;12.05;5.43;;;;;;;17.92;100.00;97478.56;5083121;28;20036;-74
2022/06/25 02:50:43;;;;;;;18.42;6.53;;;;;;;17.93;100.00;97477.41;5090575;28;20030;-74
2022/06/25 02:53:08;;;;;;;14.90;6.63;;;;;;;17.93;100.00;97482.13;5090824;28;20025;-74
2022/06/25 03:01:01;;;;;;;12.23;6.18;;;;;;;17.99;100.00;97484.28;5090747;28;20141;-74
2022/06/25 03:03:27;;;;;;;12.48;6.03;;;;;;;18.04;100.00;97484.00;5090756;28;20040;-75
2022/06/25 03:05:52;;;;;;;14.00;6.68;;;;;;;18.06;100.00;97486.44;5089169;28;20020;-74
2022/06/25 03:08:18;;;;;;;17.05;6.72;;;;;;;18.09;100.00;97486.53;5090534;28;20532;-75
2022/06/25 03:10:44;;;;;;;11.43;6.22;;;;;;;18.12;100.00;97483.06;5090630;28;20069;-76
2022/06/25 03:13:10;;;;;;;11.88;6.93;;;;;;;18.08;100.00;97479.38;5090476;28;20044;-75
2022/06/25 03:15:36;;;;;;;12.77;6.13;;;;;;;18.07;100.00;97477.75;5090525;28;20105;-76
2022/06/25 03:18:01;;;;;;;15.00;5.88;;;;;;;17.96;100.00;97487.78;5091101;28;20039;-74
2022/06/25 03:20:27;;;;;;;11.10;5.60;;;;;;;18.06;100.00;97478.94;5093050;28;20039;-76
2022/06/25 03:22:52;;;;;;;11.30;5.65;;;;;;;18.04;100.00;97481.25;5095962;28;20408;-74
2022/06/25 03:25:17;;;;;;;15.45;6.45;;;;;;;18.11;100.00;97486.97;5095277;28;20396;-76
2022/06/25 03:27:43;;;;;;;16.38;5.53;;;;;;;18.20;100.00;97484.03;5090651;28;20491;-76
2022/06/25 03:30:08;;;;;;;15.40;5.95;;;;;;;18.38;100.00;97484.50;5090239;28;20127;-75
2022/06/25 03:32:34;;;;;;;13.57;5.85;;;;;;;18.67;100.00;97495.13;5090488;28;20103;-75
2022/06/25 03:34:59;;;;;;;14.15;6.30;;;;;;;19.04;100.00;97499.19;5090194;28;20020;-75
2022/06/25 03:37:24;;;;;;;10.15;5.68;;;;;;;19.30;100.00;97497.75;5090241;28;20747;-74
2022/06/25 03:39:50;;;;;;;9.38;5.47;;;;;;;19.44;100.00;97498.91;5090342;28;20078;-75
2022/06/25 03:42:15;;;;;;;17.23;6.30;;;;;;;19.75;100.00;97500.72;5090265;28;20059;-73
2022/06/25 03:44:41;;;;;;;12.10;5.28;;;;;;;20.08;100.00;97509.31;5090250;28;20020;-74
2022/06/25 03:47:06;;;;;;;15.30;5.65;;;;;;;20.44;100.00;97510.78;5090680;28;20024;-75
2022/06/25 03:49:31;;;;;;;9.20;4.70;;;;;;;20.58;100.00;97513.81;5090101;28;20027;-74
2022/06/25 03:51:57;;;;;;;11.60;5.07;;;;;;;20.66;100.00;97514.72;5092761;28;20027;-74
2022/06/25 03:54:22;;;;;;;10.98;5.18;;;;;;;20.77;100.00;97526.81;5090278;28;20033;-74
2022/06/25 03:56:48;;;;;;;13.45;5.53;;;;;;;21.14;100.00;97527.88;5079432;28;20115;-74
2022/06/25 03:59:13;;;;;;;8.35;4.82;;;;;;;21.47;100.00;97540.22;5093355;28;20039;-74
2022/06/25 04:01:39;;;;;;;7.90;5.03;;;;;;;22.02;100.00;97539.38;5078692;28;20032;-75
2022/06/25 04:04:04;;;;;;;9.80;4.38;;;;;;;22.11;100.00;97537.13;5073202;28;20036;-74
2022/06/25 04:06:29;;;;;;;10.88;5.30;;;;;;;22.71;100.00;97543.31;5073064;28;20062;-75
2022/06/25 04:08:55;;;;;;;12.52;4.88;;;;;;;23.08;100.00;97548.81;5074000;28;20028;-74
2022/06/25 04:11:20;;;;;;;11.60;4.63;;;;;;;23.42;99.03;97550.28;5074035;28;20036;-75
2022/06/25 04:13:46;;;;;;;10.30;4.63;;;;;;;23.59;97.39;97554.34;5086767;28;20031;-75
2022/06/25 04:16:11;;;;;;;9.70;4.75;;;;;;;23.94;94.65;97560.13;5095483;28;20380;-75
2022/06/25 04:18:37;;;;;;;7.65;4.20;;;;;;;23.19;98.82;97555.25;5095404;28;20028;-74
2022/06/25 04:21:02;;;;;;;9.93;4.28;;;;;;;22.28;100.00;97555.19;5097053;28;20039;-75
2022/06/25 04:23:28;;;;;;;10.57;4.45;;;;;;;21.86;100.00;97552.72;5093301;28;20028;-74
2022/06/25 04:25:54;;;;;;;5.82;4.22;;;;;;;21.88;100.00;97553.13;5092794;28;20036;-74
2022/06/25 04:31:03;;;;;;;10.90;5.10;;;;;;;22.14;100.00;97569.78;5092820;28;20046;-74
2022/06/25 04:33:28;;;;;;;8.90;5.00;;;;;;;21.76;100.00;97575.66;5092353;28;20397;-74
2022/06/25 04:35:54;;;;;;;11.10;5.10;;;;;;;21.32;100.00;97570.66;5092233;28;20028;-73
2022/06/25 04:38:19;;;;;;;12.48;4.50;;;;;;;20.87;100.00;97565.13;5092992;28;20120;-74
2022/06/25 04:40:44;;;;;;;14.02;4.75;;;;;;;20.52;100.00;97561.72;5092814;28;20397;-75
2022/06/25 04:43:10;;;;;;;11.57;4.95;;;;;;;20.51;100.00;97557.38;5092843;28;20128;-74
2022/06/25 04:45:35;;;;;;;12.88;6.03;;;;;;;20.47;100.00;97564.81;5092828;28;20031;-73
2022/06/25 04:48:02;;;;;;;14.00;5.43;;;;;;;20.43;100.00;97564.75;5093846;28;20392;-74
2022/06/25 04:50:28;;;;;;;13.18;5.15;;;;;;;20.22;100.00;97565.13;5078525;28;20028;-74
2022/06/25 04:52:53;;;;;;;12.95;4.85;;;;;;;20.44;100.00;97558.03;5072372;28;20029;-74
2022/06/25 04:55:19;;;;;;;9.75;5.93;;;;;;;20.56;100.00;97559.81;5072287;28;20041;-74
2022/06/25 04:57:45;;;;;;;11.80;5.25;;;;;;;20.72;100.00;97572.44;5072286;28;20112;-74
2022/06/25 05:00:11;;;;;;;12.73;6.07;;;;;;;20.77;100.00;97571.31;5072394;28;20115;-70
2022/06/25 05:02:37;;;;;;;10.05;5.60;;;;;;;20.97;100.00;97570.06;5071161;28;20039;-72
2022/06/25 05:05:04;;;;;;;10.98;5.28;;;;;;;21.10;100.00;97576.25;5071850;28;20052;-72
2022/06/25 05:07:29;;;;;;;17.27;8.68;;;;;;;20.97;100.00;97583.97;5071905;28;20628;-71
2022/06/25 05:09:54;;;;;;;16.00;9.25;;;;;;;20.80;100.00;97584.47;5071746;28;20029;-71
2022/06/25 05:15:04;;;;;;;12.40;7.85;;;;;;;20.89;100.00;97595.34;5075793;28;20395;-74
2022/06/25 05:17:29;;;;;;;12.68;7.13;;;;;;;20.89;100.00;97581.47;5074500;28;20025;-72
2022/06/25 05:19:55;;;;;;;22.65;7.00;;;;;;;20.95;100.00;97586.34;5071528;28;20063;-73
2022/06/25 05:22:21;;;;;;;10.63;6.28;;;;;;;20.87;100.00;97589.34;5071653;28;20055;-73
2022/06/25 05:24:47;;;;;;;15.82;7.05;;;;;;;20.94;100.00;97595.03;5071375;28;20548;-71
2022/06/25 05:27:12;;;;;;;9.43;5.47;;;;;;;21.46;100.00;97603.44;5071572;28;20028;-71
2022/06/25 05:29:37;;;;;;;10.55;5.53;;;;;;;21.48;100.00;97611.44;5071489;28;20029;-71
2022/06/25 05:32:03;;;;;;;10.68;6.68;;;;;;;21.64;100.00;97614.88;5071505;28;20059;-72
2022/06/25 05:34:28;;;;;;;15.05;5.72;;;;;;;22.04;100.00;97617.81;5071448;28;20086;-73
2022/06/25 05:36:54;;;;;;;17.50;5.93;;;;;;;22.14;100.00;97619.16;5071407;28;20024;-74
2022/06/25 05:39:19;;;;;;;14.00;7.05;;;;;;;22.09;100.00;97622.25;5071605;28;20036;-74
2022/06/25 05:41:44;;;;;;;9.75;4.88;;;;;;;22.29;100.00;97620.91;5071181;28;20025;-74
2022/06/25 05:44:10;;;;;;;10.43;5.78;;;;;;;22.41;100.00;97613.09;5071323;28;20032;-75
2022/06/25 05:46:35;;;;;;;17.40;9.88;;;;;;;22.23;100.00;97619.66;5071486;28;20020;-74
2022/06/25 05:49:01;;;;;;;8.32;5.00;;;;;;;22.40;100.00;97614.28;5073037;28;20382;-75
2022/06/25 05:51:26;;;;;;;10.27;5.10;;;;;;;22.54;100.00;97622.00;5091412;28;20477;-74
2022/06/25 05:53:51;;;;;;;13.27;5.07;;;;;;;22.77;100.00;97630.25;5091217;28;20487;-72
2022/06/25 05:56:17;;;;;;;11.00;4.63;;;;;;;22.68;100.00;97627.75;5091222;28;20126;-74
2022/06/25 05:58:42;;;;;;;7.95;4.68;;;;;;;22.85;100.00;97629.13;5091096;28;20067;-76
2022/06/25 06:01:07;;;;;;;16.80;5.65;;;;;;;23.20;100.00;97634.22;5090978;28;20039;-74
2022/06/25 06:03:33;;;;;;;10.48;5.72;;;;;;;22.99;100.00;97632.06;5091060;28;20028;-73
2022/06/25 06:05:58;;;;;;;11.88;6.30;;;;;;;22.68;100.00;97638.91;5091021;28;20031;-70
2022/06/25 06:08:23;;;;;;;11.90;5.30;;;;;;;22.80;100.00;97647.03;5091006;28;20031;-73
2022/06/25 06:10:49;;;;;;;10.40;4.75;;;;;;;22.94;100.00;97658.31;5090928;28;20024;-76
2022/06/25 06:13:14;;;;;;;12.48;5.75;;;;;;;23.20;100.00;97662.13;5090778;28;20040;-75
2022/06/25 06:15:39;;;;;;;9.40;5.03;;;;;;;23.63;96.98;97663.31;5088654;28;20089;-75
2022/06/25 06:18:06;;;;;;;9.77;4.97;;;;;;;23.77;94.40;97666.22;5072085;28;20111;-73
2022/06/25 06:20:31;;;;;;;7.18;4.13;;;;;;;24.21;92.57;97669.72;5080670;28;20028;-74
2022/06/25 06:22:57;;;;;;;12.30;4.93;;;;;;;24.55;88.84;97675.84;5109828;28;20488;-75
2022/06/25 06:25:22;;;;;;;8.65;4.78;;;;;;;24.50;89.64;97671.41;5110032;28;20034;-76
2022/06/25 06:27:48;;;;;;;6.97;4.07;;;;;;;24.62;88.20;97675.06;5111081;28;20026;-76
2022/06/25 06:30:13;;;;;;;11.82;5.07;;;;;;;24.50;88.89;97673.41;5112350;28;20102;-74
2022/06/25 06:32:38;;;;;;;10.23;5.00;;;;;;;25.81;80.98;97680.03;5103886;28;20020;-75
2022/06/25 06:35:05;;;;;;;8.20;4.93;;;;;;;25.22;83.92;97678.00;5090512;28;20035;-74
2022/06/25 06:37:30;;;;;;;12.30;5.20;;;;;;;24.64;86.11;97676.28;5090729;28;20100;-75
2022/06/25 06:39:55;;;;;;;11.80;5.68;;;;;;;25.10;83.50;97670.81;5094260;28;20062;-75
2022/06/25 06:42:21;;;;;;;8.07;4.25;;;;;;;25.02;81.92;97669.19;5108263;28;20046;-74
2022/06/25 06:44:46;;;;;;;12.18;5.38;;;;;;;25.13;81.49;97678.41;5110654;28;20027;-75
2022/06/25 06:47:11;;;;;;;7.43;4.38;;;;;;;25.01;82.44;97674.00;5110113;28;20122;-75
2022/06/25 06:49:38;;;;;;;9.35;4.80;;;;;;;24.92;83.52;97689.56;5110739;28;20384;-75
2022/06/25 06:52:04;;;;;;;9.32;3.90;;;;;;;25.02;83.95;97691.59;5110627;28;20031;-75
2022/06/25 06:54:29;;;;;;;11.10;4.75;;;;;;;24.91;83.59;97696.34;5110196;28;20035;-76
2022/06/25 06:56:55;;;;;;;12.73;4.78;;;;;;;25.09;83.87;97680.44;5110560;28;20012;-75
2022/06/25 06:59:21;;;;;;;10.63;4.47;;;;;;;25.08;84.37;97684.41;5110473;28;20509;-75
2022/06/25 07:01:46;;;;;;;10.93;4.68;;;;;;;25.12;83.92;97679.63;5110739;28;20031;-75
2022/06/25 07:04:12;;;;;;;11.32;4.20;;;;;;;25.58;82.35;97696.50;5110489;28;20495;-75
2022/06/25 07:06:37;;;;;;;6.72;4.13;;;;;;;25.77;79.23;97692.47;5110568;28;20023;-75
2022/06/25 07:09:03;;;;;;;9.38;4.40;;;;;;;26.02;77.27;97694.03;5109229;28;20066;-75
2022/06/25 07:11:29;;;;;;;7.10;3.85;;;;;;;26.01;76.11;97694.44;5089559;28;20040;-75
2022/06/25 07:13:56;;;;;;;9.57;4.55;;;;;;;25.95;77.80;97690.44;5089878;28;20484;-73
2022/06/25 07:16:21;;;;;;;7.20;4.00;;;;;;;25.98;78.40;97693.25;5087866;28;20078;-74
2022/06/25 07:18:47;;;;;;;10.07;4.57;;;;;;;26.16;77.48;97696.03;5089532;28;20036;-73
2022/06/25 07:21:12;;;;;;;8.93;4.10;;;;;;;26.45;77.02;97694.75;5087410;28;20028;-74
2022/06/25 07:23:38;;;;;;;9.05;4.18;;;;;;;26.48;74.15;97702.34;5091810;28;20032;-73
2022/06/25 07:26:04;;;;;;;11.05;4.47;;;;;;;26.66;74.52;97695.88;5091828;28;20027;-73
2022/06/25 07:28:30;;;;;;;38.20;23.25;;;;;;;26.85;73.23;97701.81;5094105;28;20069;-73
2022/06/25 07:30:55;;;;;;;21.48;7.55;;;;;;;26.96;71.61;97684.94;5092814;28;20031;-72
2022/06/25 07:33:20;;;;;;;10.77;4.85;;;;;;;26.54;71.86;97681.09;5093963;28;20040;-73
2022/06/25 07:35:46;;;;;;;6.95;4.15;;;;;;;26.47;72.74;97685.94;5093845;28;20020;-72
2022/06/25 07:38:11;;;;;;;9.23;4.20;;;;;;;26.34;72.65;97688.38;5092909;28;20027;-72
2022/06/25 07:40:37;;;;;;;9.00;4.03;;;;;;;25.97;72.43;97688.84;5094464;28;20032;-74
2022/06/25 07:43:02;;;;;;;9.65;4.25;;;;;;;26.02;70.56;97682.03;5096755;28;20027;-73
2022/06/25 07:45:28;;;;;;;8.38;4.63;;;;;;;25.90;69.41;97690.88;5092992;28;20464;-73
2022/06/25 07:47:53;;;;;;;15.05;4.65;;;;;;;25.94;69.78;97686.03;5092654;28;20024;-73
2022/06/25 07:53:02;;;;;;;8.57;4.20;;;;;;;25.71;67.71;97677.25;5093202;28;20369;-74
2022/06/25 07:55:28;;;;;;;6.47;3.63;;;;;;;25.90;66.88;97676.84;5094242;28;20024;-74
2022/06/25 07:57:53;;;;;;;15.93;3.95;;;;;;;26.14;65.80;97677.97;5093026;28;20430;-75
2022/06/25 08:00:18;;;;;;;8.52;3.58;;;;;;;26.22;64.58;97677.59;5096151;28;20082;-74
2022/06/25 08:02:44;;;;;;;10.40;4.43;;;;;;;26.20;65.34;97677.19;5090567;28;20024;-75
2022/06/25 08:05:09;;;;;;;10.68;4.68;;;;;;;26.34;65.75;97679.16;5085635;28;20815;-75
2022/06/25 08:07:35;;;;;;;10.73;4.13;;;;;;;26.74;63.25;97678.59;5091448;28;20032;-73
2022/06/25 08:10:00;;;;;;;10.25;3.70;;;;;;;26.71;63.47;97675.81;5091527;28;20080;-73
2022/06/25 08:12:25;;;;;;;10.88;3.90;;;;;;;27.24;61.38;97684.75;5089989;28;20040;-75
2022/06/25 08:14:51;;;;;;;9.52;4.45;;;;;;;27.63;60.42;97679.63;5091590;28;20028;-72
2022/06/25 08:17:16;;;;;;;11.80;4.15;;;;;;;27.49;60.26;97676.16;5089698;28;20054;-72
2022/06/25 08:19:41;;;;;;;8.80;4.07;;;;;;;27.64;60.43;97681.25;5084125;28;20035;-72
2022/06/25 08:22:07;;;;;;;11.02;4.30;;;;;;;27.71;59.61;97674.75;5098212;28;20024;-74
2022/06/25 08:24:32;;;;;;;9.45;4.03;;;;;;;27.70;59.80;97672.34;5091729;28;20058;-73
2022/06/25 08:26:58;;;;;;;8.93;4.70;;;;;;;27.59;60.13;97673.28;5092013;28;20085;-72
2022/06/25 08:29:24;;;;;;;10.40;4.88;;;;;;;27.64;60.49;97680.44;5090051;28;20115;-76
2022/06/25 08:31:50;;;;;;;10.32;4.28;;;;;;;28.10;58.54;97680.81;5090318;28;20028;-71
2022/06/25 08:34:15;;;;;;;8.98;4.13;;;;;;;28.33;57.79;97671.75;5105304;28;20059;-71
2022/06/25 08:36:41;;;;;;;10.27;4.32;;;;;;;28.59;58.18;97682.28;5088752;28;20469;-71
2022/06/25 08:39:06;;;;;;;6.50;3.42;;;;;;;28.54;57.34;97682.75;5093680;28;20035;-72
2022/06/25 08:41:31;;;;;;;8.68;3.58;;;;;;;28.56;57.53;97679.50;5105072;28;20024;-71
2022/06/25 08:43:57;;;;;;;6.80;4.07;;;;;;;28.75;56.45;97669.66;5091474;28;20051;-72
2022/06/25 08:46:22;;;;;;;11.68;3.72;;;;;;;28.96;55.52;97675.00;5091129;28;20495;-72
2022/06/25 08:48:49;;;;;;;9.57;3.88;;;;;;;29.01;55.36;97677.31;5093516;28;20473;-71
2022/06/25 08:51:18;;;;;;;10.43;4.53;;;;;;;29.55;54.15;97675.31;5086018;28;20647;-73
2022/06/25 08:53:44;;;;;;;9.23;3.75;;;;;;;29.90;52.51;97677.56;5090564;28;20039;-71
2022/06/25 08:56:17;;;;;;;9.85;4.47;;;;;;;30.65;51.11;97676.97;5083480;28;20032;-72
2022/06/25 08:58:43;;;;;;;10.65;4.28;;;;;;;30.38;50.93;97677.09;5089431;28;20526;-72
2022/06/25 09:01:09;;;;;;;12.02;4.72;;;;;;;29.76;52.40;97672.94;5108215;28;20099;-71
2022/06/25 09:03:34;;;;;;;6.88;3.45;;;;;;;29.38;53.53;97684.88;5098483;28;20031;-73
2022/06/25 09:06:15;;;;;;;6.95;3.78;;;;;;;28.96;53.55;97672.16;5101998;28;20020;-73
2022/06/25 09:08:42;;;;;;;9.30;4.10;;;;;;;28.78;53.47;97668.81;5099345;28;20051;-72
2022/06/25 09:11:08;;;;;;;8.77;3.28;;;;;;;29.37;52.39;97658.69;5078241;28;20059;-72
2022/06/25 09:13:34;;;;;;;7.45;4.07;;;;;;;27.57;54.60;97658.81;5104939;28;20079;-74
2022/06/25 09:15:59;;;;;;;9.02;3.97;;;;;;;27.13;55.96;97662.34;5091116;28;20035;-72
2022/06/25 09:18:25;;;;;;;8.55;3.95;;;;;;;27.91;54.99;97655.31;5090286;28;20316;-68
2022/06/25 09:21:07;;;;;;;9.23;3.80;;;;;;;28.05;53.98;97660.78;5086716;28;20044;-76
2022/06/25 09:23:35;;;;;;;6.97;3.47;;;;;;;27.28;53.95;97651.81;5080854;28;20055;-69
2022/06/25 09:26:08;;;;;;;10.85;4.15;;;;;;;26.99;55.40;97664.44;5090990;28;20028;-72
2022/06/25 09:28:42;;;;;;;5.72;3.67;;;;;;;27.22;54.72;97655.47;5088249;28;20033;-70
2022/06/25 09:31:08;;;;;;;14.77;3.75;;;;;;;27.31;55.25;97659.41;5084684;28;20480;-68
2022/06/25 09:33:37;;;;;;;9.35;3.83;;;;;;;27.47;53.77;97659.69;5099769;28;20117;-68
2022/06/25 09:36:03;;;;;;;6.10;3.10;;;;;;;27.57;52.89;97658.81;5097425;28;20028;-67
2022/06/25 09:38:30;;;;;;;7.93;3.15;;;;;;;27.64;54.04;97655.94;5090035;28;20082;-71
2022/06/25 09:40:59;;;;;;;9.05;3.42;;;;;;;27.65;55.53;97660.38;5092692;28;20058;-70
2022/06/25 09:43:27;;;;;;;8.48;3.40;;;;;;;27.35;54.97;97668.59;5090005;28;20052;-70
2022/06/25 09:45:54;;;;;;;8.02;3.63;;;;;;;27.45;54.92;97659.31;5092704;28;20055;-70
2022/06/25 09:48:30;;;;;;;8.35;3.80;;;;;;;27.38;54.18;97659.34;5092583;28;20024;-73
2022/06/25 09:51:19;;;;;;;7.47;3.42;;;;;;;28.04;55.30;97664.78;5087858;28;20044;-72
2022/06/25 09:53:52;;;;;;;7.75;3.28;;;;;;;28.70;53.22;97656.81;5089346;28;20035;-76
2022/06/25 09:56:22;;;;;;;6.88;3.35;;;;;;;28.83;52.54;97657.84;5093689;28;20039;-75
2022/06/25 09:58:49;;;;;;;10.85;3.78;;;;;;;28.40;51.93;97654.78;5089278;28;20034;-79
2022/06/25 10:01:16;;;;;;;9.02;3.42;;;;;;;28.64;50.27;97656.47;5091480;28;20023;-76
2022/06/25 10:03:43;;;;;;;6.13;3.05;;;;;;;28.81;52.55;97640.59;5091416;28;20020;-74
2022/06/25 10:06:09;;;;;;;7.78;3.00;;;;;;;29.58;51.89;97647.06;5088279;28;20020;-73
2022/06/25 10:08:35;;;;;;;7.20;2.83;;;;;;;29.72;48.47;97658.13;5088898;28;20111;-75
2022/06/25 10:11:04;;;;;;;9.27;3.50;;;;;;;29.84;49.45;97655.94;5097920;28;20449;-74
2022/06/25 10:13:30;;;;;;;4.35;2.78;;;;;;;29.89;47.84;97653.41;5086299;28;20512;-74
2022/06/25 10:15:56;;;;;;;5.57;3.13;;;;;;;29.96;45.53;97655.28;5092649;28;20028;-75
2022/06/25 10:18:22;;;;;;;7.45;3.65;;;;;;;30.23;46.07;97648.31;5092565;28;20024;-72
2022/06/25 10:20:48;;;;;;;5.45;3.50;;;;;;;30.29;45.33;97649.41;5098915;28;20047;-75
2022/06/25 10:23:15;;;;;;;10.23;3.42;;;;;;;30.24;44.42;97651.94;5100079;28;20024;-78
2022/06/25 10:25:42;;;;;;;6.47;3.47;;;;;;;29.81;44.75;97651.91;5110979;28;20358;-73
2022/06/25 10:28:14;;;;;;;6.35;2.95;;;;;;;28.87;46.76;97650.16;5100927;28;20027;-77
2022/06/25 10:30:48;;;;;;;5.78;2.75;;;;;;;28.87;46.05;97649.38;5101477;28;20020;-75
2022/06/25 10:33:15;;;;;;;10.55;3.53;;;;;;;28.66;46.67;97639.97;5090295;28;20024;-74
2022/06/25 10:35:41;;;;;;;7.07;3.25;;;;;;;28.42;47.09;97632.63;5104861;28;20480;-73
2022/06/25 10:38:16;;;;;;;7.88;3.22;;;;;;;28.32;48.71;97641.22;5096584;28;20166;-74
2022/06/25 10:43:47;;;;;;;9.90;3.42;;;;;;;28.53;49.99;97624.84;5094981;28;20453;-73
2022/06/25 10:46:23;;;;;;;5.70;3.25;;;;;;;28.56;49.99;97632.47;5096812;28;20036;-74
2022/06/25 10:49:03;;;;;;;9.88;3.40;;;;;;;28.35;52.14;97634.75;5093194;28;20119;-73
2022/06/25 10:51:39;;;;;;;8.30;3.50;;;;;;;28.33;51.18;97639.97;5090522;28;20022;-72
2022/06/25 10:54:23;;;;;;;6.45;3.70;;;;;;;28.61;50.26;97631.97;5090554;28;20535;-73
2022/06/25 10:56:51;;;;;;;6.70;3.00;;;;;;;28.85;51.73;97634.91;5092239;28;20119;-72
2022/06/25 10:59:39;;;;;;;5.43;2.70;;;;;;;28.95;50.36;97629.13;5099925;28;20058;-73
2022/06/25 11:02:10;;;;;;;10.43;3.78;;;;;;;28.91;50.16;97619.94;5100300;28;20480;-72
2022/06/25 11:04:37;;;;;;;5.45;2.88;;;;;;;29.24;48.55;97623.88;5095362;28;20504;-71
2022/06/25 11:07:19;;;;;;;7.63;3.28;;;;;;;29.67;47.41;97621.94;5096322;28;20027;-72
2022/06/25 11:09:59;;;;;;;4.55;2.40;;;;;;;30.00;47.30;97625.78;5098865;28;20077;-71
2022/06/25 11:12:27;;;;;;;6.00;3.13;;;;;;;30.16;46.17;97627.91;5105834;28;20066;-72
2022/06/25 11:15:06;;;;;;;4.85;2.85;;;;;;;30.14;45.56;97630.34;5100603;28;20024;-71
2022/06/25 11:17:34;;;;;;;8.55;3.40;;;;;;;30.42;44.33;97617.75;5103443;28;20046;-72
2022/06/25 11:20:17;;;;;;;6.68;2.95;;;;;;;30.08;44.27;97617.97;5103182;28;20032;-73
2022/06/25 11:22:51;;;;;;;5.25;2.50;;;;;;;30.21;44.44;97619.72;5108398;28;20048;-77
2022/06/25 11:30:49;;;;;;;5.70;2.90;;;;;;;31.06;41.63;97617.13;5093412;28;20042;-72
2022/06/25 11:33:15;;;;;;;5.80;2.75;;;;;;;31.44;39.77;97611.78;5100994;28;20015;-74
2022/06/25 11:35:44;;;;;;;6.50;2.38;;;;;;;31.22;38.67;97612.31;5091796;28;20088;-74
2022/06/25 11:38:19;;;;;;;7.38;2.38;;;;;;;30.72;38.38;97607.00;5093898;28;20124;-72
2022/06/25 11:40:45;;;;;;;4.43;2.70;;;;;;;30.22;38.80;97603.59;5094362;28;20036;-73
2022/06/25 11:43:13;;;;;;;6.03;2.53;;;;;;;30.62;38.98;97605.19;5095624;28;20093;-72
2022/06/25 11:45:54;;;;;;;5.60;2.92;;;;;;;30.65;37.78;97603.50;5094626;28;20032;-73
2022/06/25 11:48:24;;;;;;;3.97;2.20;;;;;;;30.52;37.14;97606.22;5109200;28;20529;-73
2022/06/25 11:50:53;;;;;;;7.03;2.08;;;;;;;30.70;36.32;97606.59;5096546;28;20032;-74
2022/06/25 11:53:19;;;;;;;6.47;2.20;;;;;;;30.70;36.31;97600.97;5093108;28;20027;-76